Terminal Aerodrome Forecast
Issued by NWS Cleveland, OH

Home | Current Version | Previous Version | Graphics & Text | Print | Product List | Glossary On
Versions: 1 2 3 4 5 6 7 8 9 10 11 12 13 14 15 16 17 18 19 20 21 22 23 24
484
FTUS41 KCLE 231123
TAFTOL
TAF
KTOL 231123Z 2312/2412 22011KT 6SM BR SCT022
      TEMPO 2312/2314 5SM BR BKN022
     FM231800 27009KT P6SM BKN035
     FM232100 33006KT P6SM BKN035
     FM240000 05006KT 6SM BR OVC025
     FM240400 08006KT 3SM -SHRA BR OVC012
     FM241100 16008KT 4SM -SHRA BR OVC008=

USA.gov is the U.S. government's official web portal to all federal, state and local government web resources and services.